createdAt,value
2024-04-06T06:34:23.545Z,65.32
2024-04-06T07:53:07.034Z,57.8
2024-04-06T08:12:23.916Z,54.72
2024-04-06T08:22:02.305Z,54
2024-04-06T08:31:39.499Z,53.56
2024-04-06T08:41:17.502Z,53.29
2024-04-06T08:50:55.148Z,53.18
2024-04-06T09:10:09.765Z,52.92
2024-04-06T09:19:47.138Z,52.76
2024-04-06T09:29:24.165Z,52.72
2024-04-06T09:39:01.620Z,52.64
2024-04-06T09:48:39.072Z,52.56
2024-04-06T09:58:17.510Z,52.48
2024-04-06T10:07:54.957Z,52.51
2024-04-06T10:27:10.218Z,44.25
2024-04-06T10:47:10.588Z,32.19
2024-04-06T10:56:53.127Z,31.05
2024-04-06T11:06:39.072Z,30.25
2024-04-06T11:16:17.750Z,29
2024-04-06T11:25:56.009Z,28.54
2024-04-06T11:35:36.190Z,27.44
2024-04-06T11:45:17.715Z,26.88
2024-04-06T12:04:42.770Z,24.73
2024-04-06T12:14:21.041Z,23.46
2024-04-06T12:23:53.222Z,23.12
2024-04-06T12:33:24.839Z,24
2024-04-06T12:43:19.494Z,23.01
2024-04-06T12:53:02.376Z,23.49
2024-04-06T13:02:43.650Z,22.4
2024-04-06T13:12:21.575Z,22.16
2024-04-06T13:21:59.964Z,22.92
2024-04-06T13:41:20.830Z,20.89
2024-04-06T13:50:57.677Z,20.26
2024-04-06T14:00:36.062Z,20.18
2024-04-06T14:10:12.912Z,20.08
2024-04-06T14:19:55.014Z,20.44
2024-04-06T14:39:11.634Z,19.68
2024-04-06T14:48:45.183Z,18.95
2024-04-06T14:58:11.305Z,19.4
2024-04-06T15:17:45.701Z,21.03
2024-04-06T15:27:17.314Z,21.22
2024-04-06T15:36:50.264Z,22.64
2024-04-06T15:46:22.018Z,22.5
2024-04-06T15:55:48.472Z,21.83
2024-04-06T16:05:18.684Z,23.1
2024-04-06T16:14:54.106Z,24.59
2024-04-06T16:34:07.366Z,26.94
2024-04-06T16:43:42.794Z,27.88
2024-04-06T16:53:19.031Z,28.5
2024-04-06T17:02:54.940Z,31.27
2024-04-06T17:12:31.378Z,36.68
2024-04-06T17:22:09.679Z,37.84
2024-04-06T17:31:43.637Z,37
2024-04-06T17:41:19.952Z,38.95
2024-04-06T17:50:56.362Z,39.42
2024-04-06T18:00:33.163Z,42.5
2024-04-06T18:10:09.659Z,44.66
2024-04-06T18:19:47.031Z,40.94
2024-04-06T18:29:23.692Z,42.1
2024-04-06T18:39:00.512Z,47.73
2024-04-06T18:48:36.832Z,48.06
2024-04-06T19:07:50.964Z,44.58
2024-04-06T19:27:04.964Z,48.3
2024-04-06T19:36:42.677Z,48.94
2024-04-06T19:46:19.613Z,48.3
2024-04-06T19:55:57.136Z,48.15
2024-04-06T20:05:34.219Z,47.71
2024-04-06T20:15:12.027Z,47.92
2024-04-06T20:24:49.213Z,48.28
2024-04-06T20:34:26.524Z,48.81
2024-04-06T20:44:04.083Z,51.96
2024-04-06T20:53:41.150Z,48.05
2024-04-06T21:03:18.765Z,49.42
2024-04-06T21:12:56.014Z,50.58
2024-04-06T21:22:33.350Z,53.78
2024-04-06T21:32:10.528Z,56.9
2024-04-06T21:41:46.275Z,56.03
2024-04-06T21:51:23.481Z,58.57
2024-04-06T22:01:00.288Z,61.17
2024-04-06T22:20:14.260Z,63.31
2024-04-06T22:39:27.970Z,66.09
2024-04-06T22:49:04.789Z,66.63
2024-04-06T22:58:29.797Z,67.78
2024-04-06T23:08:06.475Z,69.62
2024-04-06T23:17:44.118Z,70.12
2024-04-06T23:27:20.960Z,70.63
2024-04-06T23:37:00.688Z,71.89
2024-04-06T23:46:34.789Z,72.69
